Time;durP1;ratioP1;P1;durP2;ratioP2;P2;SDS_P1;SDS_P2;PMS_P1;PMS_P2;Temp;Humidity;BMP_temperature;BMP_pressure;BME280_temperature;BME280_humidity;BME280_pressure;Samples;Min_cycle;Max_cycle;Signal;HPM_P1;HPM_P2
2022/02/15 00:00:27;;;;;;;64.70;33.63;;;;;;;1.53;64.75;99665.70;2192649;81;32225;-61
2022/02/15 00:03:30;;;;;;;63.17;34.33;;;;;;;1.52;64.64;99661.33;2192361;81;28622;-61
2022/02/15 00:06:32;;;;;;;62.10;33.42;;;;;;;1.53;64.73;99665.70;2191784;81;29688;-62
2022/02/15 00:09:34;;;;;;;62.65;34.43;;;;;;;1.55;64.79;99669.17;2192073;81;27608;-62
2022/02/15 00:12:37;;;;;;;69.70;35.17;;;;;;;1.59;64.86;99670.85;2192389;81;29284;-61
2022/02/15 00:15:39;;;;;;;76.02;37.45;;;;;;;1.63;64.91;99667.68;2192514;81;31406;-61
2022/02/15 00:18:41;;;;;;;62.88;34.85;;;;;;;1.69;64.88;99662.70;2192147;81;33388;-62
2022/02/15 00:21:44;;;;;;;66.15;37.15;;;;;;;1.76;64.93;99659.88;2192280;81;30664;-64
2022/02/15 00:24:45;;;;;;;65.62;36.48;;;;;;;1.82;64.94;99659.74;2185944;81;27652;-62
2022/02/15 00:27:48;;;;;;;69.45;36.95;;;;;;;1.89;64.85;99657.82;2185100;81;29892;-62
2022/02/15 00:30:50;;;;;;;69.62;35.75;;;;;;;1.94;64.78;99648.02;2185667;81;31363;-61
2022/02/15 00:33:52;;;;;;;71.30;38.98;;;;;;;1.99;64.70;99649.22;2185951;81;34097;-61
2022/02/15 00:36:53;;;;;;;72.45;37.58;;;;;;;2.05;64.66;99643.80;2185557;81;30455;-62
2022/02/15 00:39:55;;;;;;;69.47;37.90;;;;;;;2.11;64.61;99645.41;2185322;81;27761;-62
2022/02/15 00:42:57;;;;;;;65.90;35.17;;;;;;;2.14;64.57;99651.94;2186563;81;29563;-62
2022/02/15 00:45:59;;;;;;;74.82;38.85;;;;;;;2.16;64.54;99643.49;2192240;81;32289;-62
2022/02/15 00:49:01;;;;;;;70.28;40.15;;;;;;;2.20;64.50;99635.91;2192176;81;34420;-61
2022/02/15 00:52:04;;;;;;;67.60;36.45;;;;;;;2.22;64.39;99647.78;2192336;81;30331;-62
2022/02/15 00:55:08;;;;;;;66.67;35.95;;;;;;;2.24;64.41;99645.50;2192670;81;27648;-62
2022/02/15 00:58:10;;;;;;;66.55;35.10;;;;;;;2.28;64.37;99646.28;2192124;81;29670;-62
2022/02/15 01:01:12;;;;;;;68.47;37.05;;;;;;;2.29;64.33;99642.73;2192932;80;31525;-62
2022/02/15 01:04:13;;;;;;;69.32;37.65;;;;;;;2.32;64.34;99649.73;2192332;80;34169;-62
2022/02/15 01:07:15;;;;;;;67.75;36.77;;;;;;;2.38;64.30;99649.55;2192163;81;30531;-62
2022/02/15 01:10:20;;;;;;;67.05;36.63;;;;;;;2.41;64.36;99646.83;2191935;80;27609;-62
2022/02/15 01:13:22;;;;;;;67.03;36.08;;;;;;;2.46;64.27;99648.02;2191852;81;27857;-61
2022/02/15 01:16:25;;;;;;;66.45;34.85;;;;;;;2.49;64.32;99651.44;2192531;81;31087;-61
2022/02/15 01:19:27;;;;;;;67.78;35.48;;;;;;;2.53;64.24;99645.64;2190044;81;34320;-61
2022/02/15 01:22:29;;;;;;;74.22;38.88;;;;;;;2.55;64.12;99646.00;2218866;80;29325;-64
2022/02/15 01:25:33;;;;;;;69.10;37.50;;;;;;;2.58;64.17;99638.42;2196081;80;27690;-61
2022/02/15 01:28:35;;;;;;;74.72;38.70;;;;;;;2.59;64.10;99636.20;2209741;80;29568;-61
2022/02/15 01:31:37;;;;;;;71.90;38.15;;;;;;;2.62;64.11;99640.55;2193538;80;32320;-62
2022/02/15 01:34:38;;;;;;;68.45;37.63;;;;;;;2.64;64.07;99634.77;2219100;80;32867;-61
2022/02/15 01:37:40;;;;;;;75.67;36.45;;;;;;;2.67;64.11;99638.62;2211201;80;29278;-61
2022/02/15 01:40:43;;;;;;;60.60;35.80;;;;;;;2.68;64.04;99633.31;2192671;79;27667;-61
2022/02/15 01:43:47;;;;;;;68.78;37.50;;;;;;;2.69;64.00;99635.48;2191870;81;29580;-62
2022/02/15 01:46:49;;;;;;;78.67;39.00;;;;;;;2.72;64.05;99628.80;2192456;81;31050;-62
2022/02/15 01:49:52;;;;;;;80.22;42.58;;;;;;;2.73;64.00;99626.09;2213067;80;34170;-61
2022/02/15 01:52:54;;;;;;;64.87;37.17;;;;;;;2.75;63.98;99628.72;2214468;80;30805;-61
2022/02/15 01:55:57;;;;;;;74.60;37.40;;;;;;;2.77;63.96;99616.75;2192733;81;27769;-62
2022/02/15 01:58:59;;;;;;;66.05;36.58;;;;;;;2.75;63.87;99614.17;2192685;81;28644;-62
2022/02/15 02:02:01;;;;;;;66.85;36.05;;;;;;;2.76;63.92;99612.37;2192850;81;31564;-62
2022/02/15 02:08:28;;;;;;;70.42;37.80;;;;;;;2.66;63.86;99619.27;2185744;81;30035;-63
2022/02/15 02:11:31;;;;;;;65.75;36.90;;;;;;;2.62;63.89;99622.89;2185819;81;27703;-62
2022/02/15 02:14:35;;;;;;;68.47;36.33;;;;;;;2.58;63.94;99621.23;2185314;81;28730;-61
2022/02/15 02:17:37;;;;;;;65.90;36.40;;;;;;;2.56;63.99;99617.33;2185753;81;31033;-63
2022/02/15 02:20:42;;;;;;;64.80;37.38;;;;;;;2.56;64.06;99619.13;2185848;81;32977;-61
2022/02/15 02:23:44;;;;;;;70.42;36.58;;;;;;;2.56;64.13;99616.48;2193003;80;29333;-61
2022/02/15 02:26:48;;;;;;;61.10;33.48;;;;;;;2.56;64.10;99617.33;2225294;79;27671;-62
2022/02/15 02:29:51;;;;;;;63.85;36.55;;;;;;;2.57;64.14;99613.78;2228776;79;30907;-61
2022/02/15 02:32:53;;;;;;;62.83;34.60;;;;;;;2.57;64.16;99618.18;2158486;81;31800;-61
2022/02/15 02:36:01;;;;;;;67.75;37.03;;;;;;;2.59;64.23;99617.69;2158005;82;34032;-62
2022/02/15 02:39:03;;;;;;;69.75;36.42;;;;;;;2.60;64.27;99618.10;2157737;82;30516;-61
2022/02/15 02:42:05;;;;;;;62.62;35.33;;;;;;;2.64;64.29;99617.11;2175223;81;27580;-62
2022/02/15 02:45:17;;;;;;;66.35;36.23;;;;;;;2.67;64.25;99621.00;2132321;83;29891;-61
2022/02/15 02:48:19;;;;;;;64.45;35.13;;;;;;;2.69;64.30;99621.83;2175064;81;31444;-62
2022/02/15 02:51:21;;;;;;;69.58;37.05;;;;;;;2.70;64.40;99615.62;2175231;81;32972;-61
2022/02/15 02:54:24;;;;;;;65.30;36.83;;;;;;;2.70;64.25;99621.36;2174438;81;29854;-62
2022/02/15 02:57:26;;;;;;;65.97;35.90;;;;;;;2.70;64.37;99619.59;2175478;81;28252;-62
2022/02/15 03:00:28;;;;;;;67.22;37.42;;;;;;;2.72;64.42;99625.72;2175652;81;29837;-62
2022/02/15 03:03:30;;;;;;;68.05;38.60;;;;;;;2.71;64.37;99627.94;2167967;81;32207;-61
2022/02/15 03:06:31;;;;;;;72.70;39.40;;;;;;;2.70;64.34;99627.97;2157757;82;33128;-63
2022/02/15 03:09:33;;;;;;;71.10;38.38;;;;;;;2.64;64.33;99621.08;2121560;83;29291;-62
2022/02/15 03:12:35;;;;;;;71.62;40.25;;;;;;;2.64;64.43;99625.52;2170518;81;27554;-64
2022/02/15 03:15:37;;;;;;;76.75;38.95;;;;;;;2.61;64.35;99629.09;2176104;81;29045;-61
2022/02/15 03:18:38;;;;;;;73.42;40.10;;;;;;;2.60;64.39;99630.47;2238234;79;31558;-62
2022/02/15 03:21:40;;;;;;;71.20;40.60;;;;;;;2.59;64.39;99636.20;2237542;79;33582;-63
2022/02/15 03:24:42;;;;;;;70.08;38.33;;;;;;;2.55;64.47;99635.42;2230797;79;29728;-62
2022/02/15 03:27:44;;;;;;;73.52;41.30;;;;;;;2.52;64.51;99640.79;2225795;79;28295;-62
2022/02/15 03:30:46;;;;;;;75.97;42.48;;;;;;;2.52;64.58;99651.36;2238822;79;29427;-62
2022/02/15 03:33:48;;;;;;;77.70;41.08;;;;;;;2.55;64.63;99645.14;2237820;79;32264;-61
2022/02/15 03:36:50;;;;;;;91.15;50.10;;;;;;;2.58;64.81;99647.68;2237256;79;34307;-61
2022/02/15 03:39:52;;;;;;;85.55;48.05;;;;;;;2.60;64.77;99647.66;2210981;79;29962;-61
2022/02/15 03:43:06;;;;;;;74.40;40.48;;;;;;;2.62;64.88;99649.34;2201569;80;27668;-61
2022/02/15 03:46:07;;;;;;;68.70;39.30;;;;;;;2.67;65.13;99659.78;2201342;80;29937;-61
2022/02/15 03:49:11;;;;;;;77.15;41.30;;;;;;;2.70;65.58;99658.38;2200812;80;31710;-63
2022/02/15 03:52:13;;;;;;;81.37;40.75;;;;;;;2.75;66.12;99657.81;2202087;80;32802;-61
2022/02/15 03:55:14;;;;;;;86.08;47.10;;;;;;;2.79;66.16;99648.89;2200702;80;29765;-62
2022/02/15 04:01:25;;;;;;;75.92;44.20;;;;;;;2.85;66.98;99650.48;2195123;78;27655;-69
2022/02/15 04:04:27;;;;;;;75.42;44.58;;;;;;;2.87;67.26;99652.16;2217943;80;32244;-67
2022/02/15 04:07:29;;;;;;;71.50;42.25;;;;;;;2.89;67.53;99652.14;2221527;80;32938;-63
2022/02/15 04:10:31;;;;;;;73.50;42.33;;;;;;;2.91;67.54;99646.79;2204387;79;29315;-63
2022/02/15 04:13:33;;;;;;;64.22;40.52;;;;;;;2.93;67.61;99649.80;2247907;79;27639;-64
2022/02/15 04:16:36;;;;;;;76.72;44.40;;;;;;;2.94;67.75;99642.27;2248836;79;29448;-64
2022/02/15 04:19:38;;;;;;;77.95;41.60;;;;;;;2.96;68.04;99647.06;2248799;79;31030;-69
2022/02/15 04:22:41;;;;;;;71.50;42.80;;;;;;;2.97;68.09;99650.59;2247001;79;32936;-65
2022/02/15 04:25:43;;;;;;;81.28;49.15;;;;;;;2.98;68.59;99658.48;2248436;79;29476;-65
2022/02/15 04:28:46;;;;;;;93.85;53.58;;;;;;;3.00;68.73;99667.68;2248893;79;27584;-65
2022/02/15 04:31:48;;;;;;;72.55;43.73;;;;;;;2.99;68.74;99661.97;2246816;79;28656;-65
2022/02/15 04:34:49;;;;;;;74.45;42.45;;;;;;;2.97;68.67;99662.50;2248595;79;31071;-65
2022/02/15 04:37:51;;;;;;;74.10;43.50;;;;;;;2.94;68.74;99659.94;2226532;79;32944;-66
2022/02/15 04:40:53;;;;;;;74.30;42.98;;;;;;;2.88;68.67;99658.34;2220813;79;30119;-68
2022/02/15 04:43:55;;;;;;;68.72;40.52;;;;;;;2.87;68.87;99662.75;2147149;82;27710;-64
2022/02/15 04:46:57;;;;;;;70.17;41.63;;;;;;;2.85;69.02;99660.59;2147160;82;28642;-65
2022/02/15 04:49:58;;;;;;;71.10;45.55;;;;;;;2.85;69.03;99669.86;2178350;81;31837;-64
2022/02/15 04:53:00;;;;;;;73.50;41.13;;;;;;;2.83;69.18;99673.00;2184032;81;32973;-66
2022/02/15 04:56:02;;;;;;;79.82;47.03;;;;;;;2.79;69.33;99677.09;2183946;81;29394;-68
2022/02/15 04:59:04;;;;;;;95.32;58.98;;;;;;;2.79;69.40;99683.71;2178823;81;28307;-69
2022/02/15 05:02:07;;;;;;;90.03;53.70;;;;;;;2.76;69.55;99681.14;2183182;81;28669;-69
2022/02/15 05:05:09;;;;;;;93.80;51.40;;;;;;;2.73;69.64;99681.64;2184585;81;32287;-69
2022/02/15 05:08:11;;;;;;;79.15;47.53;;;;;;;2.72;69.70;99680.37;2184426;81;33769;-70
2022/02/15 05:11:14;;;;;;;89.70;56.18;;;;;;;2.71;69.77;99678.63;2184214;81;30182;-69
2022/02/15 05:14:15;;;;;;;84.72;51.90;;;;;;;2.70;69.79;99683.50;2180771;81;27714;-64
2022/02/15 05:17:17;;;;;;;81.65;48.20;;;;;;;2.65;69.78;99682.78;2177415;81;28632;-66
2022/02/15 05:20:19;;;;;;;84.15;48.87;;;;;;;2.62;69.91;99683.72;2194344;81;31780;-68
2022/02/15 05:23:20;;;;;;;84.30;48.90;;;;;;;2.61;70.09;99693.02;2194082;81;32805;-67
2022/02/15 05:26:22;;;;;;;79.65;48.10;;;;;;;2.60;70.27;99693.46;2197602;81;30126;-65
2022/02/15 05:29:24;;;;;;;82.72;48.25;;;;;;;2.62;70.22;99695.62;2195742;81;27764;-65
2022/02/15 05:32:27;;;;;;;83.90;48.68;;;;;;;2.64;70.33;99700.88;2197942;81;28642;-65
2022/02/15 05:35:29;;;;;;;81.53;48.58;;;;;;;2.67;70.60;99702.09;2197720;81;31018;-69
2022/02/15 05:38:31;;;;;;;78.25;47.58;;;;;;;2.70;70.64;99702.91;2197011;81;33101;-67
2022/02/15 05:41:32;;;;;;;79.42;47.40;;;;;;;2.73;70.82;99703.27;2197940;81;30120;-66
2022/02/15 05:44:34;;;;;;;76.22;47.45;;;;;;;2.78;70.98;99704.02;2197856;81;28210;-66
2022/02/15 05:47:36;;;;;;;82.95;49.03;;;;;;;2.81;70.65;99711.87;2197480;81;28634;-66
2022/02/15 05:50:49;;;;;;;83.78;48.78;;;;;;;2.83;70.84;99714.00;2197720;81;30466;-67
2022/02/15 05:53:52;;;;;;;82.00;50.45;;;;;;;2.85;70.99;99721.44;2196765;81;33847;-70
2022/02/15 05:56:54;;;;;;;84.10;49.42;;;;;;;2.86;71.11;99726.30;2194688;81;29512;-66
2022/02/15 05:59:55;;;;;;;91.25;52.90;;;;;;;2.87;71.24;99738.61;2193625;81;27689;-66
2022/02/15 06:02:57;;;;;;;93.30;56.58;;;;;;;2.89;71.26;99738.97;2193546;81;28521;-66
2022/02/15 06:05:59;;;;;;;100.53;56.70;;;;;;;2.93;71.35;99738.42;2193403;81;31210;-66
2022/02/15 06:09:01;;;;;;;101.70;59.33;;;;;;;2.97;71.42;99738.77;2167499;81;32358;-70
2022/02/15 06:12:03;;;;;;;97.42;59.55;;;;;;;3.00;71.42;99739.12;2156892;82;30149;-69
2022/02/15 06:15:06;;;;;;;102.53;61.42;;;;;;;3.02;71.44;99739.52;2157811;82;27752;-67
2022/02/15 06:18:08;;;;;;;104.67;61.37;;;;;;;3.08;71.59;99739.80;2189773;81;28693;-69
2022/02/15 06:21:10;;;;;;;90.60;54.42;;;;;;;3.11;71.68;99743.69;2195914;81;31061;-67
2022/02/15 06:24:12;;;;;;;91.35;50.55;;;;;;;3.15;71.68;99742.66;2197232;81;32963;-68
2022/02/15 06:27:15;;;;;;;87.00;51.92;;;;;;;3.19;71.73;99743.00;2195250;81;30119;-68
2022/02/15 06:30:17;;;;;;;107.12;58.50;;;;;;;3.22;71.51;99746.03;2197856;81;27723;-68
2022/02/15 06:33:19;;;;;;;87.70;50.80;;;;;;;3.26;71.67;99747.66;2197796;81;28810;-67
2022/02/15 06:36:20;;;;;;;92.65;51.50;;;;;;;3.31;71.54;99755.49;2197468;81;31829;-68
2022/02/15 06:39:22;;;;;;;156.90;84.00;;;;;;;3.32;71.40;99757.20;2197344;81;34019;-68
2022/02/15 06:42:24;;;;;;;143.47;78.45;;;;;;;3.37;71.64;99766.36;2197342;81;29392;-67
2022/02/15 06:45:26;;;;;;;97.72;61.75;;;;;;;3.42;71.65;99778.55;2197138;81;27930;-68
2022/02/15 06:48:28;;;;;;;97.53;58.68;;;;;;;3.44;71.74;99778.48;2197701;81;28826;-66
2022/02/15 06:51:30;;;;;;;90.07;54.10;;;;;;;3.46;71.84;99782.85;2196499;81;31848;-65
2022/02/15 06:54:32;;;;;;;81.78;52.48;;;;;;;3.49;71.92;99788.50;2193327;81;33953;-66
2022/02/15 06:57:33;;;;;;;86.28;52.17;;;;;;;3.51;71.95;99788.01;2196388;81;29376;-67
2022/02/15 07:00:35;;;;;;;76.50;50.03;;;;;;;3.55;72.02;99787.45;2197605;81;27747;-68
2022/02/15 07:03:37;;;;;;;79.22;47.78;;;;;;;3.58;71.95;99795.31;2193927;81;29547;-66
2022/02/15 07:06:39;;;;;;;75.52;46.70;;;;;;;3.58;71.94;99798.81;2197604;81;31059;-67
2022/02/15 07:09:42;;;;;;;72.75;45.43;;;;;;;3.62;72.09;99798.30;2197016;81;33591;-67
2022/02/15 07:12:44;;;;;;;67.95;42.67;;;;;;;3.64;72.06;99807.92;2194079;80;29343;-66
2022/02/15 07:15:46;;;;;;;71.35;45.85;;;;;;;3.69;72.13;99799.83;2197238;81;27623;-66
2022/02/15 07:18:48;;;;;;;72.65;44.53;;;;;;;3.74;72.12;99807.20;2197447;81;28646;-67
2022/02/15 07:21:50;;;;;;;74.17;47.60;;;;;;;3.81;72.11;99811.86;2197700;81;31017;-66
2022/02/15 07:24:52;;;;;;;78.28;48.40;;;;;;;3.88;72.36;99810.77;2197582;81;32957;-69
2022/02/15 07:27:54;;;;;;;75.95;46.77;;;;;;;3.97;72.31;99815.38;2196289;81;30194;-66
2022/02/15 07:30:56;;;;;;;73.72;44.48;;;;;;;4.04;72.10;99824.88;2193176;81;27684;-67
2022/02/15 07:33:57;;;;;;;83.12;45.70;;;;;;;4.09;71.85;99821.61;2193366;81;28777;-67
2022/02/15 07:36:59;;;;;;;76.47;45.05;;;;;;;4.15;72.02;99814.81;2193968;81;31030;-67
2022/02/15 07:40:01;;;;;;;75.20;45.35;;;;;;;4.24;72.04;99822.46;2197684;81;33121;-66
2022/02/15 07:43:03;;;;;;;78.78;44.80;;;;;;;4.33;71.94;99827.94;2197515;81;29336;-68
2022/02/15 07:46:07;;;;;;;77.37;44.88;;;;;;;4.43;71.78;99824.53;2197720;81;27640;-67
2022/02/15 07:49:08;;;;;;;74.15;42.62;;;;;;;4.50;71.84;99837.14;2195123;81;28822;-66
2022/02/15 07:52:11;;;;;;;73.05;42.83;;;;;;;4.59;71.61;99835.97;2197658;81;30446;-65
2022/02/15 07:55:12;;;;;;;78.22;45.10;;;;;;;4.63;71.47;99838.94;2197319;81;32975;-65
2022/02/15 07:58:15;;;;;;;67.92;40.73;;;;;;;4.72;71.65;99838.63;2197545;81;30135;-66
2022/02/15 08:01:17;;;;;;;68.20;41.13;;;;;;;4.87;71.57;99841.25;2193135;81;27668;-67
2022/02/15 08:04:20;;;;;;;69.37;40.70;;;;;;;4.99;71.57;99847.45;2181528;81;29525;-65
2022/02/15 08:07:22;;;;;;;75.10;40.88;;;;;;;5.12;71.62;99837.77;2139328;82;31841;-67
2022/02/15 08:10:25;;;;;;;70.08;39.08;;;;;;;5.24;71.46;99841.76;2133483;83;33402;-68
2022/02/15 08:13:34;;;;;;;74.70;40.38;;;;;;;5.37;71.53;99836.45;2151456;82;29209;-66
2022/02/15 08:16:31;;;;;;;70.28;41.55;;;;;;;5.57;71.60;99836.16;2112684;83;28236;-67
2022/02/15 08:19:33;;;;;;;75.50;44.03;;;;;;;5.79;71.08;99830.95;2109234;82;28745;-68
2022/02/15 08:22:34;;;;;;;74.87;43.78;;;;;;;6.02;71.18;99831.44;2181691;81;30993;-67
2022/02/15 08:25:37;;;;;;;74.03;42.75;;;;;;;6.27;71.06;99835.78;2158997;82;33053;-66
2022/02/15 08:28:43;;;;;;;73.05;42.17;;;;;;;6.51;70.92;99835.74;2138680;83;30152;-67
2022/02/15 08:31:42;;;;;;;80.70;49.53;;;;;;;6.73;70.88;99846.38;2177409;81;27683;-66
2022/02/15 08:34:45;;;;;;;74.30;45.45;;;;;;;6.96;70.77;99848.53;2145061;82;28692;-67
2022/02/15 08:37:47;;;;;;;67.65;43.87;;;;;;;7.25;70.62;99851.77;2161473;81;31047;-67
2022/02/15 08:40:49;;;;;;;69.90;41.95;;;;;;;7.52;70.39;99851.03;2154519;82;32967;-66
2022/02/15 08:43:51;;;;;;;67.58;40.75;;;;;;;7.81;69.77;99853.30;2155476;82;29354;-67
2022/02/15 08:46:55;;;;;;;64.47;39.53;;;;;;;8.01;69.73;99854.59;2154560;81;27660;-68
2022/02/15 08:49:56;;;;;;;67.08;38.70;;;;;;;8.20;69.63;99849.73;2157370;82;28672;-67
2022/02/15 08:52:58;;;;;;;61.37;37.58;;;;;;;8.33;69.44;99852.21;2158501;82;31821;-67
2022/02/15 08:56:00;;;;;;;71.37;38.08;;;;;;;8.44;69.25;99854.38;2156193;82;33085;-65
2022/02/15 08:59:02;;;;;;;64.27;37.13;;;;;;;8.51;68.74;99857.19;2158421;82;29341;-67
2022/02/15 09:02:05;;;;;;;64.03;36.08;;;;;;;8.66;69.07;99854.22;2179530;81;28095;-63
2022/02/15 09:05:09;;;;;;;63.42;36.33;;;;;;;8.87;68.81;99856.78;2196547;79;29393;-74
2022/02/15 09:08:10;;;;;;;61.98;32.05;;;;;;;9.10;68.71;99860.97;2198472;79;31057;-64
2022/02/15 09:11:13;;;;;;;59.10;32.93;;;;;;;9.28;68.25;99864.98;2196937;81;34168;-62
2022/02/15 09:14:15;;;;;;;56.50;30.12;;;;;;;9.47;68.15;99870.72;2202275;80;30109;-62
2022/02/15 09:17:17;;;;;;;53.75;30.23;;;;;;;9.59;67.87;99871.41;2214634;80;27972;-66
2022/02/15 09:20:19;;;;;;;50.67;29.23;;;;;;;9.68;67.43;99874.06;2206199;80;28630;-72
2022/02/15 09:23:21;;;;;;;49.42;28.57;;;;;;;9.73;67.15;99878.71;2197224;81;31101;-67
2022/02/15 09:26:24;;;;;;;44.10;25.95;;;;;;;9.84;67.08;99876.81;2196824;81;33009;-71
2022/02/15 09:29:26;;;;;;;47.67;26.57;;;;;;;9.94;67.01;99879.37;2197094;80;29554;-70
2022/02/15 09:32:28;;;;;;;36.20;21.45;;;;;;;10.04;66.77;99887.28;2196964;80;27729;-68
2022/02/15 09:35:30;;;;;;;29.63;17.85;;;;;;;10.12;66.30;99890.88;2197175;81;29060;-69
2022/02/15 09:38:32;;;;;;;34.35;16.95;;;;;;;10.17;65.95;99894.66;2197081;81;30772;-69
2022/02/15 09:41:34;;;;;;;22.60;15.80;;;;;;;10.22;65.86;99885.03;2196890;81;34256;-64
2022/02/15 09:44:36;;;;;;;22.85;13.88;;;;;;;10.19;65.08;99888.27;2175472;80;30498;-67
2022/02/15 09:47:41;;;;;;;23.30;15.48;;;;;;;10.16;64.51;99895.12;2173393;81;27749;-70
2022/02/15 09:50:43;;;;;;;22.77;14.45;;;;;;;10.14;64.77;99895.67;2173514;81;29500;-69
2022/02/15 09:53:45;;;;;;;20.50;13.83;;;;;;;10.13;64.07;99891.27;2147346;81;32254;-65
2022/02/15 09:56:47;;;;;;;24.23;15.88;;;;;;;10.16;64.21;99897.80;2183193;81;33500;-63
2022/02/15 09:59:50;;;;;;;26.27;15.18;;;;;;;10.22;64.12;99894.41;2196762;81;29378;-63
2022/02/15 10:02:52;;;;;;;24.65;14.10;;;;;;;10.29;63.91;99900.67;2177617;81;27674;-64
2022/02/15 10:05:54;;;;;;;21.33;13.78;;;;;;;10.36;63.60;99899.86;2156938;81;29122;-62
2022/02/15 10:08:58;;;;;;;24.35;14.25;;;;;;;10.43;63.37;99905.77;2177467;81;31952;-61
2022/02/15 10:12:14;;;;;;;20.65;14.30;;;;;;;10.46;62.89;99911.81;2150874;82;32984;-67
2022/02/15 10:15:15;;;;;;;27.05;16.95;;;;;;;10.46;63.17;99909.13;2095604;85;30596;-66
2022/02/15 10:18:25;;;;;;;23.98;15.55;;;;;;;10.49;63.13;99913.47;2164568;81;27727;-66
2022/02/15 10:21:30;;;;;;;22.55;15.55;;;;;;;10.51;62.99;99915.56;2156773;82;29418;-71
2022/02/15 10:24:34;;;;;;;;;;;;;;;10.59;63.02;99919.19;2138421;83;31880;-72
2022/02/15 10:27:36;;;;;;;23.52;14.33;;;;;;;10.71;62.79;99922.50;2134785;82;34189;-67
2022/02/15 10:30:53;;;;;;;28.75;16.25;;;;;;;10.76;62.58;99915.05;2155824;82;29673;-67
2022/02/15 10:34:00;;;;;;;24.67;16.23;;;;;;;10.84;62.68;99907.91;2117481;83;27658;-70
2022/02/15 10:37:05;;;;;;;24.98;17.40;;;;;;;10.91;62.29;99909.80;2158950;81;30796;-66
2022/02/15 10:40:08;;;;;;;25.50;16.97;;;;;;;10.94;62.01;99912.27;2156549;81;32091;-65
2022/02/15 10:43:10;;;;;;;26.60;16.52;;;;;;;10.93;61.75;99916.78;2139834;82;32965;-72
2022/02/15 10:46:33;;;;;;;28.50;17.48;;;;;;;10.93;61.75;99920.80;2132125;82;29676;-67
2022/02/15 10:49:31;;;;;;;27.05;16.77;;;;;;;10.87;61.63;99922.48;2170733;81;27626;-63
2022/02/15 10:52:34;;;;;;;25.17;16.42;;;;;;;10.80;61.10;99922.46;2184381;81;29031;-66
2022/02/15 10:55:36;;;;;;;25.17;17.02;;;;;;;10.71;61.33;99918.95;2191079;80;31192;-69
2022/02/15 10:58:38;;;;;;;24.72;16.23;;;;;;;10.71;61.41;99921.62;2190280;81;34173;-71
2022/02/15 11:01:43;;;;;;;22.50;15.23;;;;;;;10.67;60.98;99921.44;2203428;78;30772;-66
2022/02/15 11:04:46;;;;;;;26.52;18.15;;;;;;;10.57;60.85;99921.08;2229153;78;27628;-62
2022/02/15 11:07:48;;;;;;;29.92;18.20;;;;;;;10.48;61.29;99917.09;2190741;80;30159;-70
2022/02/15 11:11:13;;;;;;;26.02;17.60;;;;;;;10.38;61.44;99918.50;2220364;80;32095;-64
2022/02/15 11:14:16;;;;;;;25.92;16.55;;;;;;;10.37;61.50;99933.72;2220131;80;34244;-64
2022/02/15 11:17:18;;;;;;;29.52;18.23;;;;;;;10.29;61.40;99935.48;2220275;80;29317;-66
2022/02/15 11:20:23;;;;;;;25.85;17.62;;;;;;;10.25;61.84;99936.59;2220613;80;27732;-66
2022/02/15 11:23:31;;;;;;;28.07;17.65;;;;;;;10.24;61.75;99936.19;2220788;80;28636;-65
2022/02/15 11:26:43;;;;;;;25.25;17.37;;;;;;;10.24;61.84;99942.04;2221062;80;31004;-66
2022/02/15 11:29:53;;;;;;;27.42;18.75;;;;;;;10.16;61.78;99940.63;2220437;80;33320;-65
2022/02/15 11:33:01;;;;;;;30.52;17.85;;;;;;;10.13;61.71;99938.59;2221095;80;29491;-66
2022/02/15 11:36:13;;;;;;;31.33;18.23;;;;;;;10.12;61.93;99938.20;2219793;80;27887;-66
2022/02/15 11:39:24;;;;;;;32.95;18.60;;;;;;;10.14;62.01;99937.16;2221020;80;29508;-66
2022/02/15 11:42:26;;;;;;;29.77;19.85;;;;;;;10.20;62.36;99929.27;2182608;81;31079;-68
2022/02/15 11:45:29;;;;;;;33.08;20.82;;;;;;;10.25;62.29;99924.54;2181260;81;32722;-67
2022/02/15 11:48:42;;;;;;;36.90;21.90;;;;;;;10.28;61.84;99925.72;2181833;81;30728;-67
2022/02/15 11:51:47;;;;;;;38.50;26.20;;;;;;;10.31;62.09;99919.32;2185828;80;27650;-70
2022/02/15 11:54:49;;;;;;;39.88;28.10;;;;;;;10.43;62.15;99908.45;2220785;80;29504;-68
2022/02/15 11:57:51;;;;;;;41.42;28.85;;;;;;;10.59;62.16;99913.83;2221046;80;31890;-67
2022/02/15 12:00:53;;;;;;;37.03;22.85;;;;;;;10.72;61.90;99913.52;2219924;80;33739;-66
2022/02/15 12:03:58;;;;;;;46.65;26.52;;;;;;;10.78;61.68;99914.48;2220714;78;29719;-67
2022/02/15 12:07:04;;;;;;;46.85;24.37;;;;;;;10.84;61.60;99914.61;2221224;80;27630;-67
2022/02/15 12:10:11;;;;;;;34.80;20.02;;;;;;;10.92;61.55;99912.38;2220917;80;29572;-63
2022/02/15 12:13:18;;;;;;;36.95;19.07;;;;;;;11.02;61.67;99912.70;2220147;80;31344;-65
2022/02/15 12:16:21;;;;;;;29.85;19.07;;;;;;;11.11;61.33;99904.61;2221045;80;33512;-63
2022/02/15 12:19:36;;;;;;;31.60;18.90;;;;;;;11.14;60.97;99901.75;2221413;80;30148;-64
2022/02/15 12:22:41;;;;;;;30.55;18.80;;;;;;;11.16;60.97;99894.48;2221802;80;36761;-67
2022/02/15 12:25:45;;;;;;;31.73;17.42;;;;;;;11.25;61.07;99898.45;2213638;80;29683;-61
2022/02/15 12:28:57;;;;;;;21.00;13.37;;;;;;;11.34;61.03;99902.37;2220495;80;31048;-60
2022/02/15 12:32:03;;;;;;;25.27;16.62;;;;;;;11.38;60.98;99896.76;2219621;80;33770;-62
2022/02/15 12:35:07;;;;;;;24.32;15.95;;;;;;;11.40;60.62;99902.90;2187707;80;29501;-62
2022/02/15 12:38:09;;;;;;;24.27;16.07;;;;;;;11.45;60.70;99897.25;2181076;81;27723;-61
2022/02/15 12:41:17;;;;;;;30.70;15.65;;;;;;;11.51;60.58;99895.52;2190924;80;29048;-61
2022/02/15 12:44:25;;;;;;;23.60;16.02;;;;;;;11.56;60.32;99901.98;2180827;80;32120;-60
2022/02/15 12:47:29;;;;;;;27.30;16.42;;;;;;;11.59;60.23;99901.77;2180087;81;34179;-60
2022/02/15 12:50:32;;;;;;;26.77;16.48;;;;;;;11.59;60.13;99902.27;2194686;80;30033;-61
2022/02/15 12:53:34;;;;;;;28.50;16.00;;;;;;;11.62;60.01;99899.40;2192398;80;28129;-60
2022/02/15 12:56:39;;;;;;;27.95;16.32;;;;;;;11.65;59.79;99904.09;2197809;80;29940;-64
2022/02/15 12:59:40;;;;;;;25.60;16.20;;;;;;;11.71;59.82;99902.85;2153642;80;31031;-65
2022/02/15 13:02:49;;;;;;;25.77;15.58;;;;;;;11.76;59.87;99894.05;2221735;79;32381;-65
2022/02/15 13:05:51;;;;;;;24.35;16.35;;;;;;;11.81;59.72;99891.95;2187961;80;30122;-65
2022/02/15 13:08:55;;;;;;;28.12;16.67;;;;;;;11.87;59.55;99892.05;2185802;81;28169;-66
2022/02/15 13:12:01;;;;;;;21.55;15.45;;;;;;;11.93;59.57;99895.68;2209680;80;28676;-69
2022/02/15 13:15:05;;;;;;;24.90;14.07;;;;;;;12.03;59.57;99886.61;2207551;80;31012;-67
2022/02/15 13:18:09;;;;;;;24.20;14.73;;;;;;;12.08;59.10;99890.38;2210646;80;33819;-64
2022/02/15 13:21:21;;;;;;;31.80;15.65;;;;;;;12.11;58.95;99894.19;2180858;81;33550;-67
2022/02/15 13:24:24;;;;;;;23.60;14.63;;;;;;;12.10;58.70;99896.48;2207361;80;27733;-61
2022/02/15 13:27:32;;;;;;;19.35;13.65;;;;;;;12.11;58.72;99901.78;2183006;81;28675;-61
2022/02/15 13:30:34;;;;;;;22.73;14.45;;;;;;;12.10;58.35;99892.45;2182870;81;31746;-63
2022/02/15 13:33:48;;;;;;;23.75;14.95;;;;;;;11.99;57.94;99891.81;2185893;80;33815;-67
2022/02/15 13:36:57;;;;;;;23.73;14.98;;;;;;;11.85;58.19;99892.13;2179927;81;29347;-66
2022/02/15 13:40:02;;;;;;;27.52;15.38;;;;;;;11.69;57.85;99897.59;2184466;80;27834;-61
2022/02/15 13:43:05;;;;;;;25.05;15.03;;;;;;;11.55;58.11;99895.73;2203450;79;29416;-67
2022/02/15 13:46:07;;;;;;;26.00;16.25;;;;;;;11.44;58.00;99891.96;2184335;81;32408;-65
2022/02/15 13:49:09;;;;;;;28.23;15.88;;;;;;;11.28;57.94;99895.56;2184208;81;34189;-59
2022/02/15 13:52:11;;;;;;;27.42;17.17;;;;;;;11.14;58.10;99898.20;2184626;81;29903;-63
2022/02/15 13:55:13;;;;;;;21.05;14.07;;;;;;;11.04;58.16;99901.88;2177488;81;27742;-62
2022/02/15 13:58:16;;;;;;;24.98;14.80;;;;;;;10.94;58.05;99902.89;2193694;81;29509;-67
2022/02/15 14:01:18;;;;;;;23.77;14.28;;;;;;;10.84;58.30;99902.55;2193727;81;32216;-61
2022/02/15 14:04:26;;;;;;;25.75;15.63;;;;;;;10.72;58.19;99894.77;2178512;81;32996;-62
2022/02/15 14:07:25;;;;;;;28.38;14.93;;;;;;;10.61;58.12;99898.05;2146859;82;33095;-67
2022/02/15 14:10:28;;;;;;;29.77;15.48;;;;;;;10.51;58.33;99899.98;2181078;81;27745;-61
2022/02/15 14:13:30;;;;;;;27.22;15.93;;;;;;;10.42;58.37;99891.53;2187960;79;29473;-60